Terminal Aerodrome Forecast
Issued by NWS

Home | Current Version | Previous Version | Text Only | Print | Product List | Glossary On
Versions: 1 2 3 4 5 6 7 8 9 10 11 12 13 14 15 16 17 18 19 20 21 22 23 24 25 26 27 28 29 30 31 32 33 34 35 36 37 38 39
492
FTUS42 KCAE 201554 AAB
TAFCUB
TAF AMD
KCUB 201554Z 2016/2112 18006KT P6SM SCT025 BKN035
      TEMPO 2017/2020 5SM TSRA BKN035CB
     FM202000 18006KT P6SM VCSH BKN040
     FM210100 17003KT P6SM OVC040=

USA.gov is the U.S. government's official web portal to all federal, state and local government web resources and services.